Time;durP1;ratioP1;P1;durP2;ratioP2;P2;SDS_P1;SDS_P2;PMS_P1;PMS_P2;Temp;Humidity;BMP_temperature;BMP_pressure;BME280_temperature;BME280_humidity;BME280_pressure;Samples;Min_cycle;Max_cycle;Signal;HPM_P1;HPM_P2
2021/09/22 00:00:29;;;;;;;12.80;9.30;;;;;;;9.48;85.63;101053.97;93718;1196;98771;-63
2021/09/22 00:02:39;;;;;;;11.80;9.80;;;;;;;9.47;85.73;101054.81;93746;1196;87916;-63
2021/09/22 00:04:43;;;;;;;13.00;10.00;;;;;;;9.45;85.83;101052.98;93695;1196;94878;-62
2021/09/22 00:06:50;;;;;;;13.70;10.30;;;;;;;9.47;85.80;101052.96;93689;1197;80106;-62
2021/09/22 00:08:54;;;;;;;11.60;9.20;;;;;;;9.44;85.77;101055.32;93727;1196;82113;-64
2021/09/22 00:11:02;;;;;;;13.40;9.20;;;;;;;9.44;85.80;101056.63;93789;1195;99816;-64
2021/09/22 00:13:07;;;;;;;12.50;8.80;;;;;;;9.42;85.79;101054.40;93803;1195;88052;-64
2021/09/22 00:15:14;;;;;;;13.50;10.20;;;;;;;9.39;85.86;101053.15;93822;1195;93980;-63
2021/09/22 00:17:18;;;;;;;11.60;9.00;;;;;;;9.36;85.80;101051.02;93793;1188;80222;-62
2021/09/22 00:19:22;;;;;;;14.10;9.20;;;;;;;9.32;85.84;101052.02;93861;1195;80655;-63
2021/09/22 00:21:26;;;;;;;12.60;9.20;;;;;;;9.33;85.78;101051.88;93818;1195;98757;-63
2021/09/22 00:23:34;;;;;;;14.50;9.30;;;;;;;9.29;85.77;101049.77;93886;1195;87879;-64
2021/09/22 00:25:41;;;;;;;13.80;9.70;;;;;;;9.27;85.86;101047.33;93771;1195;94256;-62
2021/09/22 00:27:45;;;;;;;13.90;10.60;;;;;;;9.26;85.87;101050.15;93846;1195;78349;-63
2021/09/22 00:29:49;;;;;;;14.00;9.50;;;;;;;9.22;85.81;101048.92;93870;1195;81976;-67
2021/09/22 00:31:53;;;;;;;12.10;9.90;;;;;;;9.17;85.83;101048.39;93850;1195;97956;-65
2021/09/22 00:33:58;;;;;;;12.10;9.40;;;;;;;9.15;85.85;101050.02;93815;1195;87090;-64
2021/09/22 00:36:02;;;;;;;12.40;9.50;;;;;;;9.17;85.94;101049.48;93833;1195;95341;-65
2021/09/22 00:38:09;;;;;;;11.70;9.30;;;;;;;9.18;86.04;101049.48;93687;1196;80658;-65
2021/09/22 00:40:15;;;;;;;13.20;10.30;;;;;;;9.17;86.05;101045.36;93685;1196;80614;-65
2021/09/22 00:42:19;;;;;;;13.60;10.20;;;;;;;9.18;86.11;101050.84;93706;1196;98420;-65
2021/09/22 00:44:24;;;;;;;11.80;10.00;;;;;;;9.21;86.11;101047.27;93685;1196;87757;-62
2021/09/22 00:46:28;;;;;;;12.90;9.90;;;;;;;9.20;86.09;101040.49;93713;1196;94592;-63
2021/09/22 00:48:34;;;;;;;12.90;9.90;;;;;;;9.22;86.19;101046.61;93712;1196;80268;-64
2021/09/22 00:50:38;;;;;;;13.30;10.00;;;;;;;9.26;86.18;101041.48;93715;1197;79891;-65
2021/09/22 00:52:44;;;;;;;14.40;9.60;;;;;;;9.24;86.11;101045.53;93712;1196;97005;-65
2021/09/22 00:54:49;;;;;;;14.20;10.80;;;;;;;9.22;86.17;101045.00;93709;1196;86823;-63
2021/09/22 00:56:53;;;;;;;12.50;9.50;;;;;;;9.20;86.13;101042.18;93755;1196;94475;-62
2021/09/22 00:58:58;;;;;;;12.30;9.10;;;;;;;9.18;86.07;101040.36;93669;1183;79569;-63
2021/09/22 01:01:03;;;;;;;11.80;9.50;;;;;;;9.15;86.11;101037.69;93694;1196;80734;-61
2021/09/22 01:03:10;;;;;;;11.70;8.60;;;;;;;9.15;86.17;101039.47;93668;1197;97770;-63
2021/09/22 01:05:16;;;;;;;12.70;9.30;;;;;;;9.13;86.19;101034.16;93709;1196;87708;-65
2021/09/22 01:07:20;;;;;;;13.20;9.20;;;;;;;9.10;86.17;101035.02;93741;1189;93755;-65
2021/09/22 01:09:26;;;;;;;12.20;9.50;;;;;;;9.09;86.15;101030.64;93843;1195;80101;-62
2021/09/22 01:11:33;;;;;;;12.60;9.50;;;;;;;9.05;86.16;101031.58;93710;1196;81408;-64
2021/09/22 01:13:37;;;;;;;11.90;9.40;;;;;;;9.00;86.19;101032.42;93820;1195;100214;-66
2021/09/22 01:15:43;;;;;;;12.50;9.60;;;;;;;8.96;86.27;101032.23;93823;1195;89012;-65
2021/09/22 01:17:47;;;;;;;12.40;9.00;;;;;;;8.91;86.30;101034.52;93720;1196;94159;-65
2021/09/22 01:19:51;;;;;;;14.90;9.20;;;;;;;8.90;86.35;101034.17;93710;1196;81006;-65
2021/09/22 01:21:57;;;;;;;12.10;9.40;;;;;;;8.86;86.33;101033.73;93622;1198;82219;-64
2021/09/22 01:24:01;;;;;;;12.20;9.20;;;;;;;8.83;86.36;101033.21;93871;1195;99063;-62
2021/09/22 01:26:05;;;;;;;10.30;8.60;;;;;;;8.82;86.45;101035.42;93664;1196;88219;-63
2021/09/22 01:28:16;;;;;;;13.70;9.70;;;;;;;8.82;86.42;101033.67;93834;1195;93462;-63
2021/09/22 01:30:20;;;;;;;12.70;9.60;;;;;;;8.81;86.47;101034.89;93797;1195;79455;-65
2021/09/22 01:32:27;;;;;;;10.20;8.80;;;;;;;8.79;86.48;101035.23;93889;1195;81934;-65
2021/09/22 01:34:31;;;;;;;11.50;9.40;;;;;;;8.78;86.52;101034.56;93827;1195;98193;-65
2021/09/22 01:36:36;;;;;;;12.20;9.00;;;;;;;8.78;86.63;101037.67;93872;1195;88084;-64
2021/09/22 01:38:40;;;;;;;12.90;9.50;;;;;;;8.78;86.63;101035.82;93658;1196;95028;-65
2021/09/22 01:41:00;;;;;;;11.20;9.00;;;;;;;8.80;86.67;101039.05;93763;1196;78976;-65
2021/09/22 01:43:05;;;;;;;12.20;9.10;;;;;;;8.82;86.69;101035.46;93699;1196;82088;-65
2021/09/22 01:45:15;;;;;;;13.30;9.30;;;;;;;8.87;86.75;101039.42;93704;1196;96908;-63
2021/09/22 01:47:19;;;;;;;12.90;9.30;;;;;;;8.91;86.87;101042.44;93739;1196;88406;-62
2021/09/22 01:49:27;;;;;;;11.50;9.50;;;;;;;8.94;86.84;101043.77;93695;1196;93571;-63
2021/09/22 01:51:31;;;;;;;14.50;10.30;;;;;;;8.93;86.86;101044.37;93703;1196;77761;-63
2021/09/22 01:53:37;;;;;;;10.90;9.20;;;;;;;8.89;86.87;101044.17;93844;1195;82239;-64
2021/09/22 01:55:41;;;;;;;11.00;9.40;;;;;;;8.89;86.86;101043.88;93895;1195;97751;-66
2021/09/22 01:57:46;;;;;;;12.40;9.90;;;;;;;8.89;86.90;101041.48;93678;1196;89227;-65
2021/09/22 01:59:50;;;;;;;10.70;9.60;;;;;;;8.88;86.83;101040.88;93683;1196;94577;-65
2021/09/22 02:01:55;;;;;;;11.20;9.30;;;;;;;8.88;86.81;101041.05;93698;1196;79484;-64
2021/09/22 02:03:59;;;;;;;12.20;9.90;;;;;;;8.88;86.89;101036.90;93844;1195;81434;-62
2021/09/22 02:06:04;;;;;;;12.80;10.00;;;;;;;8.86;86.93;101034.09;93917;1195;98649;-64
2021/09/22 02:08:17;;;;;;;13.00;9.80;;;;;;;8.86;86.87;101031.06;93924;1195;86918;-62
2021/09/22 02:10:25;;;;;;;11.80;9.50;;;;;;;8.80;86.92;101026.30;93703;1196;94820;-65
2021/09/22 02:12:29;;;;;;;14.00;9.40;;;;;;;8.79;86.92;101023.77;93677;1196;79462;-65
2021/09/22 02:14:34;;;;;;;12.60;9.80;;;;;;;8.79;86.98;101021.61;93700;1196;81452;-61
2021/09/22 02:16:38;;;;;;;12.70;9.80;;;;;;;8.76;87.07;101017.46;93685;1196;99133;-63
2021/09/22 02:18:42;;;;;;;12.00;10.00;;;;;;;8.78;87.04;101018.41;93760;1196;87639;-63
2021/09/22 02:20:46;;;;;;;13.10;10.40;;;;;;;8.83;87.11;101018.86;93649;1196;94410;-62
2021/09/22 02:22:51;;;;;;;12.80;9.60;;;;;;;8.81;87.01;101019.23;93704;1196;79734;-63
2021/09/22 02:24:55;;;;;;;11.50;9.50;;;;;;;8.82;87.09;101017.07;93708;1196;82219;-65
2021/09/22 02:27:00;;;;;;;12.00;9.60;;;;;;;8.81;87.05;101019.90;93725;1196;98398;-64
2021/09/22 02:29:04;;;;;;;11.70;9.20;;;;;;;8.82;87.08;101016.39;93897;1195;87776;-65
2021/09/22 02:31:08;;;;;;;13.30;9.80;;;;;;;8.82;87.11;101017.65;93881;1195;92855;-65
2021/09/22 02:33:13;;;;;;;12.20;9.70;;;;;;;8.80;87.01;101016.03;93927;1195;79383;-64
2021/09/22 02:35:17;;;;;;;12.80;9.40;;;;;;;8.77;87.05;101016.18;93827;1195;80335;-62
2021/09/22 02:37:22;;;;;;;14.30;10.40;;;;;;;8.74;87.10;101012.60;93923;1195;98177;-63
2021/09/22 02:39:26;;;;;;;13.40;10.20;;;;;;;8.73;87.03;101013.81;93705;1196;85794;-65
2021/09/22 02:41:30;;;;;;;12.70;9.00;;;;;;;8.73;87.05;101011.96;93924;1195;93751;-64
2021/09/22 02:43:35;;;;;;;13.40;9.80;;;;;;;8.72;87.06;101010.50;93679;1196;79430;-63
2021/09/22 02:45:39;;;;;;;14.10;9.40;;;;;;;8.69;87.08;101010.77;93890;1195;84043;-62
2021/09/22 02:47:44;;;;;;;13.80;10.20;;;;;;;8.69;87.18;101014.02;93962;1195;97338;-62
2021/09/22 02:49:48;;;;;;;12.90;9.80;;;;;;;8.73;87.22;101017.72;93917;1196;88372;-65
2021/09/22 02:51:53;;;;;;;11.40;8.60;;;;;;;8.76;87.18;101014.97;93906;1195;94539;-65
2021/09/22 02:53:57;;;;;;;11.30;9.60;;;;;;;8.76;87.16;101018.44;93713;1196;78078;-62
2021/09/22 02:56:01;;;;;;;12.70;9.70;;;;;;;8.76;87.18;101017.56;93886;1195;81488;-63
2021/09/22 02:58:05;;;;;;;13.20;9.30;;;;;;;8.75;87.15;101015.93;93877;1195;97100;-63
2021/09/22 03:00:16;;;;;;;10.90;9.10;;;;;;;8.70;87.12;101017.70;93916;1196;87440;-64
2021/09/22 03:02:20;;;;;;;13.50;9.90;;;;;;;8.67;87.06;101017.33;93886;1195;93203;-64
2021/09/22 03:04:27;;;;;;;13.00;8.80;;;;;;;8.64;87.02;101018.15;93879;1195;77371;-64
2021/09/22 03:06:34;;;;;;;12.20;9.30;;;;;;;8.62;87.05;101016.39;93985;1195;80446;-62
2021/09/22 03:08:39;;;;;;;11.40;9.10;;;;;;;8.60;87.07;101015.56;93862;1195;98125;-61
2021/09/22 03:10:43;;;;;;;13.30;10.30;;;;;;;8.55;87.14;101015.67;93820;1195;88297;-61
2021/09/22 03:12:48;;;;;;;11.10;8.80;;;;;;;8.53;87.01;101016.45;93908;1195;93883;-63
2021/09/22 03:14:54;;;;;;;12.70;9.10;;;;;;;8.48;86.91;101019.69;93713;1196;80419;-65
2021/09/22 03:16:58;;;;;;;11.50;9.30;;;;;;;8.43;87.08;101022.06;93870;1196;81844;-65
2021/09/22 03:19:03;;;;;;;12.50;9.50;;;;;;;8.44;87.07;101019.47;93698;1196;98314;-63
2021/09/22 03:21:07;;;;;;;12.70;9.50;;;;;;;8.43;87.18;101021.64;93681;1196;88303;-62
2021/09/22 03:23:12;;;;;;;11.40;8.30;;;;;;;8.41;87.32;101020.81;93897;1195;94521;-64
2021/09/22 03:25:17;;;;;;;12.30;8.90;;;;;;;8.42;87.18;101018.95;93669;1196;80800;-63
2021/09/22 03:27:21;;;;;;;10.90;9.10;;;;;;;8.40;87.21;101024.02;93745;1196;80562;-62
2021/09/22 03:29:26;;;;;;;12.30;8.50;;;;;;;8.40;87.27;101023.77;93733;1196;97797;-62
2021/09/22 03:31:30;;;;;;;10.80;8.50;;;;;;;8.41;87.39;101026.59;93949;1195;86979;-62
2021/09/22 03:33:34;;;;;;;11.20;9.20;;;;;;;8.41;87.54;101022.81;93945;1195;94487;-62
2021/09/22 03:35:38;;;;;;;11.10;8.80;;;;;;;8.41;87.51;101030.21;93666;1197;81272;-62
2021/09/22 03:37:43;;;;;;;12.60;9.30;;;;;;;8.40;87.43;101026.51;93678;1196;80787;-61
2021/09/22 03:39:47;;;;;;;13.70;9.50;;;;;;;8.38;87.45;101029.33;93900;1195;98521;-62
2021/09/22 03:41:51;;;;;;;11.50;9.40;;;;;;;8.34;87.55;101028.73;93925;1195;87886;-62
2021/09/22 03:43:55;;;;;;;12.00;9.30;;;;;;;8.33;87.54;101031.39;93899;1195;94202;-65
2021/09/22 03:46:00;;;;;;;11.90;9.70;;;;;;;8.35;87.60;101032.77;93941;1195;78249;-65
2021/09/22 03:48:05;;;;;;;13.10;9.40;;;;;;;8.37;87.55;101032.01;93750;1196;81346;-65
2021/09/22 03:50:11;;;;;;;12.70;10.10;;;;;;;8.37;87.61;101032.02;93950;1195;98337;-62
2021/09/22 03:52:16;;;;;;;11.00;9.00;;;;;;;8.37;87.59;101033.05;93937;1195;87884;-63
2021/09/22 03:54:20;;;;;;;11.10;9.10;;;;;;;8.37;87.61;101031.45;93898;1195;93819;-65
2021/09/22 03:56:24;;;;;;;12.70;9.70;;;;;;;8.38;87.72;101026.36;93709;1196;78880;-65
2021/09/22 03:58:28;;;;;;;12.50;9.30;;;;;;;8.41;87.76;101026.41;93915;1195;82151;-62
2021/09/22 04:00:33;;;;;;;15.90;10.70;;;;;;;8.36;87.90;101027.94;93869;1195;97871;-62
2021/09/22 04:02:37;;;;;;;12.00;9.20;;;;;;;8.38;87.87;101029.19;93737;1195;87641;-63
2021/09/22 04:04:42;;;;;;;11.90;9.30;;;;;;;8.41;87.91;101025.27;93910;1195;93159;-64
2021/09/22 04:06:46;;;;;;;10.60;8.10;;;;;;;8.46;87.91;101027.63;93981;1195;77173;-65
2021/09/22 04:08:50;;;;;;;11.20;9.70;;;;;;;8.49;88.00;101029.79;93725;1196;82027;-65
2021/09/22 04:10:57;;;;;;;11.30;9.60;;;;;;;8.48;87.86;101022.75;93689;1196;99572;-65
2021/09/22 04:13:01;;;;;;;12.30;9.50;;;;;;;8.47;87.96;101023.75;93723;1196;87755;-65
2021/09/22 04:15:08;;;;;;;11.40;8.70;;;;;;;8.48;87.87;101025.14;93645;1196;92998;-65
2021/09/22 04:17:12;;;;;;;10.60;9.20;;;;;;;8.49;87.94;101026.73;93697;1196;80853;-63
2021/09/22 04:19:21;;;;;;;11.00;8.80;;;;;;;8.55;87.94;101027.02;93710;1196;82216;-65
2021/09/22 04:21:28;;;;;;;14.40;10.80;;;;;;;8.56;88.04;101030.20;93710;1196;98936;-63
2021/09/22 04:23:35;;;;;;;12.20;8.80;;;;;;;8.59;88.05;101027.55;93719;1196;87417;-63
2021/09/22 04:25:40;;;;;;;15.20;9.00;;;;;;;8.60;88.03;101029.89;93711;1196;93983;-63
2021/09/22 04:27:44;;;;;;;10.80;9.00;;;;;;;8.60;88.01;101029.20;93710;1197;80797;-62
2021/09/22 04:29:48;;;;;;;12.60;9.30;;;;;;;8.59;87.98;101031.77;93666;1196;82075;-65
2021/09/22 04:31:52;;;;;;;11.20;9.30;;;;;;;8.62;87.99;101031.71;93698;1196;98884;-65
2021/09/22 04:33:58;;;;;;;11.10;8.70;;;;;;;8.66;87.99;101034.88;93728;1196;88211;-64
2021/09/22 04:36:02;;;;;;;11.30;9.00;;;;;;;8.64;87.99;101041.48;93728;1196;93300;-65
2021/09/22 04:38:11;;;;;;;14.40;10.90;;;;;;;8.64;88.00;101042.20;93700;1196;81064;-65
2021/09/22 04:40:18;;;;;;;12.90;10.30;;;;;;;8.62;87.95;101037.77;93723;1196;80536;-65
2021/09/22 04:42:22;;;;;;;10.40;9.00;;;;;;;8.64;87.97;101039.13;93700;1196;98875;-64
2021/09/22 04:44:26;;;;;;;12.80;9.10;;;;;;;8.70;87.95;101039.95;93653;1197;87708;-63
2021/09/22 04:46:35;;;;;;;13.30;9.80;;;;;;;8.70;87.95;101039.98;93683;1196;93050;-62
2021/09/22 04:48:41;;;;;;;13.00;9.70;;;;;;;8.72;88.05;101042.46;93713;1196;78906;-64
2021/09/22 04:50:45;;;;;;;12.80;9.90;;;;;;;8.72;87.98;101040.67;93677;1197;81958;-65
2021/09/22 04:52:50;;;;;;;13.10;9.70;;;;;;;8.72;87.97;101042.96;93614;1196;98486;-66
2021/09/22 04:54:57;;;;;;;12.90;10.30;;;;;;;8.73;87.99;101044.90;93692;1184;85775;-65
2021/09/22 04:57:01;;;;;;;11.30;9.30;;;;;;;8.73;88.03;101042.13;93721;1197;92877;-64
2021/09/22 04:59:05;;;;;;;12.20;9.90;;;;;;;8.73;88.10;101044.45;93665;1196;79811;-64
2021/09/22 05:01:10;;;;;;;14.70;10.80;;;;;;;8.78;88.04;101044.33;93723;1197;80407;-65
2021/09/22 05:03:15;;;;;;;12.70;10.30;;;;;;;8.84;88.08;101044.52;93663;1196;98711;-64
2021/09/22 05:05:21;;;;;;;11.80;9.90;;;;;;;8.87;88.03;101044.78;93737;1196;86707;-61
2021/09/22 05:07:25;;;;;;;11.90;8.60;;;;;;;8.84;88.15;101043.52;93736;1196;94324;-62
2021/09/22 05:09:29;;;;;;;12.50;10.10;;;;;;;8.86;88.06;101045.79;93706;1197;79728;-62
2021/09/22 05:11:33;;;;;;;12.80;10.50;;;;;;;8.89;88.15;101046.40;93717;1196;81546;-62
2021/09/22 05:13:38;;;;;;;11.60;9.60;;;;;;;8.91;88.17;101045.06;93652;1197;98630;-65
2021/09/22 05:15:42;;;;;;;12.50;9.90;;;;;;;8.95;88.23;101046.48;93658;1196;86546;-68
2021/09/22 05:17:46;;;;;;;11.70;9.60;;;;;;;8.98;88.20;101048.55;93696;1197;94175;-65
2021/09/22 05:19:50;;;;;;;14.00;9.00;;;;;;;9.04;88.16;101045.52;93649;1196;80667;-67
2021/09/22 05:21:54;;;;;;;12.10;9.50;;;;;;;9.09;88.18;101046.93;93717;1196;81213;-65
2021/09/22 05:23:58;;;;;;;12.80;9.60;;;;;;;9.08;88.09;101048.86;93702;1196;97457;-63
2021/09/22 05:26:03;;;;;;;12.90;10.00;;;;;;;9.11;88.17;101044.69;93680;1191;87829;-62
2021/09/22 05:28:10;;;;;;;14.40;10.20;;;;;;;9.17;88.16;101045.55;93685;1197;93173;-61
2021/09/22 05:30:15;;;;;;;12.70;10.20;;;;;;;9.21;88.15;101047.80;93656;1196;81152;-66
2021/09/22 05:32:19;;;;;;;14.40;10.70;;;;;;;9.20;88.16;101051.98;93747;1196;80876;-66
2021/09/22 05:34:23;;;;;;;13.20;10.50;;;;;;;9.19;88.11;101049.05;93700;1197;97537;-62
2021/09/22 05:36:28;;;;;;;16.10;9.70;;;;;;;9.22;88.19;101044.42;93920;1195;87217;-62
2021/09/22 05:38:32;;;;;;;15.60;10.70;;;;;;;9.30;88.22;101049.12;93925;1195;94905;-63
2021/09/22 05:40:36;;;;;;;11.50;9.70;;;;;;;9.39;88.18;101051.06;93905;1195;81482;-62
2021/09/22 05:42:40;;;;;;;14.50;10.20;;;;;;;9.46;88.11;101051.00;93937;1195;82355;-62
2021/09/22 05:44:44;;;;;;;12.40;10.00;;;;;;;9.47;88.15;101054.08;93943;1195;97602;-61
2021/09/22 05:46:48;;;;;;;12.30;9.90;;;;;;;9.54;88.13;101054.23;94014;1195;88554;-63
2021/09/22 05:48:53;;;;;;;12.20;10.30;;;;;;;9.61;88.17;101055.44;93917;1195;94162;-64
2021/09/22 05:50:58;;;;;;;14.30;10.40;;;;;;;9.66;88.20;101056.88;93946;1195;81814;-66
2021/09/22 05:53:03;;;;;;;12.10;9.50;;;;;;;9.65;88.14;101057.30;93978;1195;82195;-65
2021/09/22 05:55:09;;;;;;;14.00;10.00;;;;;;;9.64;88.06;101062.65;93642;1197;97924;-65
2021/09/22 05:57:13;;;;;;;14.60;9.70;;;;;;;9.69;88.05;101067.15;93964;1195;87782;-65
2021/09/22 05:59:20;;;;;;;14.60;10.40;;;;;;;9.79;88.03;101072.30;93675;1196;93472;-62
2021/09/22 06:01:24;;;;;;;13.40;10.80;;;;;;;9.90;88.07;101068.20;93979;1195;78229;-62
2021/09/22 06:03:28;;;;;;;12.50;10.40;;;;;;;9.98;88.09;101071.85;93872;1196;82252;-63
2021/09/22 06:05:33;;;;;;;12.90;10.50;;;;;;;9.96;87.96;101067.02;93948;1195;99603;-62
2021/09/22 06:07:37;;;;;;;13.00;10.00;;;;;;;10.05;88.05;101072.46;93934;1195;87524;-64
2021/09/22 06:09:41;;;;;;;11.70;10.10;;;;;;;10.10;87.96;101074.30;93883;1195;94452;-69
2021/09/22 06:11:45;;;;;;;13.20;9.70;;;;;;;10.18;87.86;101072.20;93989;1195;78379;-65
2021/09/22 06:13:53;;;;;;;13.30;10.10;;;;;;;10.26;87.80;101072.84;93973;1196;81252;-64
2021/09/22 06:15:57;;;;;;;13.30;10.10;;;;;;;10.26;87.83;101077.02;93715;1196;97373;-66
2021/09/22 06:18:01;;;;;;;11.90;9.60;;;;;;;10.34;87.81;101076.98;93695;1196;88233;-68
2021/09/22 06:20:10;;;;;;;13.40;10.20;;;;;;;10.45;87.83;101076.29;93852;1195;93431;-61
2021/09/22 06:22:14;;;;;;;11.60;9.40;;;;;;;10.60;87.86;101073.18;93956;1195;81272;-61
2021/09/22 06:24:19;;;;;;;11.30;9.60;;;;;;;10.75;87.84;101067.45;93965;1195;79944;-62
2021/09/22 06:26:24;;;;;;;14.00;10.30;;;;;;;10.93;87.88;101066.48;93940;1195;97463;-61
2021/09/22 06:28:29;;;;;;;12.40;10.30;;;;;;;11.12;87.83;101070.34;93912;1195;87963;-61
2021/09/22 06:30:33;;;;;;;12.80;9.20;;;;;;;11.25;87.66;101071.36;93903;1195;93296;-61
2021/09/22 06:32:38;;;;;;;13.40;9.10;;;;;;;11.36;87.53;101075.60;93963;1195;80988;-61
2021/09/22 06:34:43;;;;;;;17.00;13.10;;;;;;;11.40;87.27;101073.48;93978;1195;81885;-63
2021/09/22 06:36:47;;;;;;;13.60;10.50;;;;;;;11.48;87.08;101079.85;93962;1195;98613;-61
2021/09/22 06:38:51;;;;;;;13.00;9.80;;;;;;;11.55;86.92;101078.11;93959;1195;87584;-62
2021/09/22 06:40:56;;;;;;;12.70;9.20;;;;;;;11.65;86.86;101082.34;93929;1195;94099;-61
2021/09/22 06:43:02;;;;;;;12.80;9.10;;;;;;;11.76;86.63;101084.13;93941;1195;79833;-61
2021/09/22 06:45:09;;;;;;;10.10;7.80;;;;;;;11.81;86.37;101081.59;93943;1195;82171;-67
2021/09/22 06:47:14;;;;;;;13.30;7.80;;;;;;;11.83;86.26;101090.70;93990;1195;98297;-66
2021/09/22 06:49:18;;;;;;;9.90;8.10;;;;;;;11.92;86.10;101087.19;93925;1195;87317;-66
2021/09/22 06:51:22;;;;;;;8.70;7.70;;;;;;;12.04;86.08;101092.05;93929;1195;92857;-66
2021/09/22 06:53:30;;;;;;;9.70;8.00;;;;;;;12.08;85.90;101091.28;93878;1195;80012;-66
2021/09/22 06:55:34;;;;;;;8.60;7.50;;;;;;;12.11;85.71;101090.74;93895;1195;81870;-67
2021/09/22 06:57:39;;;;;;;9.00;7.20;;;;;;;12.16;85.52;101094.29;94001;1195;96285;-65
2021/09/22 06:59:43;;;;;;;11.10;7.70;;;;;;;12.20;85.41;101096.01;93893;1195;86615;-62
2021/09/22 07:01:48;;;;;;;11.00;7.80;;;;;;;12.30;85.19;101098.46;93845;1195;94920;-61
2021/09/22 07:03:52;;;;;;;11.50;7.20;;;;;;;12.43;85.13;101095.77;93871;1195;78437;-62
2021/09/22 07:05:56;;;;;;;9.60;8.00;;;;;;;12.58;85.01;101096.84;93881;1196;81584;-63
2021/09/22 07:08:01;;;;;;;10.20;7.30;;;;;;;12.77;84.79;101095.08;93885;1196;100069;-62
2021/09/22 07:10:08;;;;;;;9.60;6.80;;;;;;;12.93;84.44;101094.13;93907;1195;86761;-67
2021/09/22 07:12:12;;;;;;;7.90;5.80;;;;;;;13.04;84.01;101095.70;93802;1195;94411;-64
2021/09/22 07:14:17;;;;;;;8.40;5.70;;;;;;;13.15;83.79;101096.10;93903;1195;80233;-66
2021/09/22 07:16:21;;;;;;;9.00;6.50;;;;;;;13.28;83.57;101097.73;93920;1195;80469;-68
2021/09/22 07:18:25;;;;;;;9.20;5.70;;;;;;;13.38;83.12;101099.20;93874;1195;98902;-60
2021/09/22 07:20:30;;;;;;;8.20;6.10;;;;;;;13.49;83.13;101096.77;93891;1196;87237;-61
2021/09/22 07:22:34;;;;;;;10.40;6.30;;;;;;;13.51;82.75;101095.24;93934;1195;94137;-61
2021/09/22 07:24:38;;;;;;;7.30;5.20;;;;;;;13.35;82.39;101095.57;93905;1196;77734;-66
2021/09/22 07:26:43;;;;;;;6.90;5.30;;;;;;;13.24;82.26;101095.62;93912;1195;82342;-66
2021/09/22 07:28:47;;;;;;;8.20;5.60;;;;;;;13.16;82.16;101097.28;93882;1196;98365;-60
2021/09/22 07:30:52;;;;;;;6.50;4.90;;;;;;;13.09;82.11;101101.73;93892;1195;86965;-61
2021/09/22 07:32:59;;;;;;;8.00;5.80;;;;;;;13.08;81.99;101104.56;93897;1195;93963;-62
2021/09/22 07:35:05;;;;;;;6.20;4.80;;;;;;;12.88;81.88;101103.80;93850;1195;80322;-67
2021/09/22 07:37:11;;;;;;;6.50;4.50;;;;;;;12.97;82.11;101111.31;93920;1195;82427;-67
2021/09/22 07:39:15;;;;;;;6.80;4.40;;;;;;;13.05;82.04;101109.88;93866;1195;100002;-67
2021/09/22 07:41:20;;;;;;;7.20;4.30;;;;;;;12.98;81.21;101107.65;93909;1195;86627;-67
2021/09/22 07:43:24;;;;;;;5.10;3.60;;;;;;;12.79;81.01;101104.36;93873;1195;95109;-67
2021/09/22 07:45:29;;;;;;;5.30;3.50;;;;;;;12.70;81.04;101102.83;93943;1196;78180;-66
2021/09/22 07:47:33;;;;;;;4.50;3.40;;;;;;;12.59;80.20;101104.08;93932;1195;80501;-65
2021/09/22 07:49:37;;;;;;;5.50;3.50;;;;;;;12.63;80.85;101106.68;93911;1195;99038;-61
2021/09/22 07:51:41;;;;;;;5.80;3.80;;;;;;;12.73;80.48;101109.08;93884;1195;87343;-62
2021/09/22 07:53:46;;;;;;;4.90;3.40;;;;;;;12.72;80.56;101107.05;93886;1195;93641;-62
2021/09/22 07:55:50;;;;;;;5.60;3.30;;;;;;;12.85;80.46;101113.55;93907;1195;79072;-62
2021/09/22 07:57:55;;;;;;;5.00;3.20;;;;;;;13.25;79.94;101109.69;93894;1196;81142;-62
2021/09/22 07:59:59;;;;;;;5.70;3.90;;;;;;;13.52;78.95;101113.98;93903;1195;99119;-62
2021/09/22 08:02:04;;;;;;;5.00;3.30;;;;;;;13.58;78.98;101110.12;93894;1195;87757;-61
2021/09/22 08:04:08;;;;;;;5.30;3.10;;;;;;;13.82;79.07;101107.11;93900;1195;93660;-65
2021/09/22 08:06:12;;;;;;;4.00;2.70;;;;;;;14.52;78.54;101100.35;93901;1195;80492;-66
2021/09/22 08:08:16;;;;;;;3.00;2.30;;;;;;;15.69;77.36;101097.88;93865;1195;81625;-66
2021/09/22 08:10:21;;;;;;;3.10;2.50;;;;;;;16.93;76.03;101098.73;93867;1195;98806;-67
2021/09/22 08:12:25;;;;;;;4.40;2.50;;;;;;;17.83;73.40;101099.63;93859;1195;86448;-67
2021/09/22 08:14:30;;;;;;;3.20;2.60;;;;;;;17.75;71.16;101102.86;93831;1196;94342;-62
2021/09/22 08:16:34;;;;;;;3.40;2.00;;;;;;;17.57;70.02;101109.68;93864;1195;79626;-63
2021/09/22 08:18:38;;;;;;;4.70;2.20;;;;;;;17.16;69.23;101112.21;93911;1195;81463;-67
2021/09/22 08:20:43;;;;;;;3.10;2.10;;;;;;;16.86;68.20;101116.27;93880;1195;98298;-67
2021/09/22 08:22:48;;;;;;;2.70;2.00;;;;;;;16.81;67.21;101115.29;93851;1196;87843;-68
2021/09/22 08:24:52;;;;;;;3.10;2.50;;;;;;;16.63;66.77;101111.45;93888;1196;94391;-63
2021/09/22 08:26:57;;;;;;;3.80;2.30;;;;;;;17.38;65.19;101117.86;93855;1196;78553;-63
2021/09/22 08:29:01;;;;;;;4.30;2.50;;;;;;;18.57;64.79;101109.99;93846;1195;82854;-62
2021/09/22 08:31:06;;;;;;;3.60;2.30;;;;;;;19.12;64.27;101104.86;93904;1196;97183;-62
2021/09/22 08:33:10;;;;;;;3.90;2.40;;;;;;;18.86;64.28;101104.54;93907;1195;88025;-64
2021/09/22 08:35:14;;;;;;;3.70;2.10;;;;;;;19.86;64.31;101105.43;93907;1195;93305;-66
2021/09/22 08:37:19;;;;;;;2.40;2.00;;;;;;;19.87;62.04;101103.69;93849;1195;78658;-70
2021/09/22 08:39:23;;;;;;;3.00;2.30;;;;;;;19.38;62.34;101104.23;93878;1195;80767;-69
2021/09/22 08:41:27;;;;;;;4.10;2.60;;;;;;;19.88;61.13;101098.74;93723;1196;98399;-69
2021/09/22 08:43:32;;;;;;;7.00;2.10;;;;;;;19.33;59.67;101097.23;93796;1195;88559;-63
2021/09/22 08:45:41;;;;;;;3.00;2.00;;;;;;;18.74;59.67;101100.08;93919;1195;93605;-64
2021/09/22 08:47:48;;;;;;;2.70;2.20;;;;;;;17.78;60.25;101103.77;93888;1195;78027;-64
2021/09/22 08:49:53;;;;;;;3.00;1.90;;;;;;;17.75;61.39;101107.38;93853;1195;82429;-63
2021/09/22 08:51:58;;;;;;;2.40;1.90;;;;;;;17.99;59.63;101098.83;93864;1195;98830;-64
2021/09/22 08:54:07;;;;;;;2.80;2.00;;;;;;;17.58;59.86;101100.98;93834;1195;86699;-69
2021/09/22 08:56:12;;;;;;;3.50;2.00;;;;;;;17.23;58.88;101096.86;93867;1195;92591;-70
2021/09/22 08:58:20;;;;;;;2.70;2.00;;;;;;;17.17;59.67;101098.02;93890;1195;78858;-70
2021/09/22 09:00:27;;;;;;;3.30;1.90;;;;;;;18.02;60.34;101094.62;93838;1195;81869;-70
2021/09/22 09:02:40;;;;;;;2.50;1.80;;;;;;;18.62;58.92;101092.89;93855;1196;99544;-69
2021/09/22 09:05:01;;;;;;;3.00;1.70;;;;;;;19.44;58.68;101085.15;93730;1196;85618;-75
2021/09/22 09:07:09;;;;;;;2.20;1.70;;;;;;;20.02;57.14;101082.23;93797;1195;94651;-71
2021/09/22 09:09:14;;;;;;;1.80;1.50;;;;;;;19.31;56.07;101085.32;93857;1196;79265;-70
2021/09/22 09:11:28;;;;;;;2.70;1.70;;;;;;;19.12;53.77;101084.82;93902;1196;82181;-70
2021/09/22 09:13:46;;;;;;;2.90;1.90;;;;;;;18.61;53.17;101084.80;93878;1195;99007;-70
2021/09/22 09:15:50;;;;;;;2.90;1.60;;;;;;;18.10;54.55;101087.75;93740;1196;87570;-70
2021/09/22 09:17:59;;;;;;;2.40;2.00;;;;;;;18.88;53.80;101082.11;93867;1196;94599;-69
2021/09/22 09:20:12;;;;;;;2.60;1.70;;;;;;;19.62;54.04;101082.52;93824;1196;78235;-64
2021/09/22 09:22:17;;;;;;;2.70;1.70;;;;;;;20.33;53.64;101072.66;93907;1195;81915;-64
2021/09/22 09:24:33;;;;;;;2.80;1.80;;;;;;;20.90;52.89;101071.95;93690;1196;98893;-64
2021/09/22 09:26:39;;;;;;;2.60;2.00;;;;;;;21.39;52.61;101072.95;93862;1195;87970;-64
2021/09/22 09:28:49;;;;;;;2.70;1.90;;;;;;;21.51;51.03;101071.41;93842;1196;94632;-63
2021/09/22 09:30:57;;;;;;;2.30;1.90;;;;;;;21.52;50.08;101069.83;93865;1195;79300;-63
2021/09/22 09:33:02;;;;;;;2.60;1.60;;;;;;;21.38;48.35;101070.33;93850;1196;81199;-64
2021/09/22 09:35:10;;;;;;;3.30;2.60;;;;;;;21.32;48.10;101072.06;93838;1196;98001;-64
2021/09/22 09:37:16;;;;;;;2.70;1.80;;;;;;;21.62;48.16;101070.19;93906;1196;87129;-64
2021/09/22 09:39:23;;;;;;;2.00;1.50;;;;;;;21.55;47.30;101067.76;93694;1197;93194;-68